Matthewstown, North Carolina
Current Conditions -  °F | °C
As of 6:54 PM on Friday 21 Nov 2014 (Local Time) from KGSO Reporting Station
Few Clouds Few Clouds  
Wind Chill: 38°   Ceiling: Unl
Heat Index: 38°   Visibility: 10mi
Dew Point: 13°   Wind: 3mph
Humidity: 36%   Direction: 70°ENE
Pressure: 30.46"   Gusts: NA
Location:  36.1188°N, 80.075°W
Report Text: KGSO 212354Z 07003KT 10SM FEW250 03/M11 A3046 RMK AO2 SLP322 T00331106 10089 20022 51016
Loading
Personal Weather Stations






























Interactive Weather Map New forecast layout! Learn more

10-Day Weather Forecast

Advertisements
Track Severe Weather on mobile